Russell, Illinois
Current Conditions -  °F | °C
As of 6:15 AM on Sunday 23 Nov 2014 (Local Time) from KUGN Reporting Station
Overcast Overcast  
Wind Chill: 45°   Ceiling: 2100
Heat Index: 49°   Visibility: 10mi
Dew Point: 43°   Wind: 10mph
Humidity: 80%   Direction: 190°S
Pressure: 29.72"   Gusts: NA
Location:  42.49°N, 87.91°W
Report Text: KUGN 231215Z 19009KT 10SM BKN021 OVC050 09/06 A2972 RMK AO2 T00940061
Loading
Personal Weather Stations






























Interactive Weather Map New forecast layout! Learn more

10-Day Weather Forecast

Advertisements
Track Severe Weather on mobile